Terminal Aerodrome Forecast
Issued by NWS

Home | Current Version | Previous Version | Text Only | Print | Product List | Glossary On
Versions: 1 2 3 4 5 6 7 8 9 10 11 12 13 14 15
536
FTUS45 KRIW 201129
TAFRKS
TAF
KRKS 201129Z 2012/2112 23008KT P6SM SCT120 SCT200
     FM201900 24011G18KT P6SM SCT100 BKN150
     FM210100 24009KT P6SM VCSH SCT100 BKN150
     FM210600 23006KT P6SM FEW110 SCT200=

USA.gov is the U.S. government's official web portal to all federal, state and local government web resources and services.